Details From MMMX - Licenciado Benito Juarez Intl
To MMQT - QUERETARO INTERCONTINENTAL
Flight Number -
Tags generated
Created
Modified
Stats Distance 95 nm / 176 km
Max Altitude 0 ft / 0 m
Waypoints 3
Social Downloads 0
Likes 0
Share VATSIM

Download

Looking for another format? Having issues loading an existing format? Contact us
Advertisement - Login to hide

Notes

Basic altitude profile: - Ascent Rate: 2500ft/min - Ascent Speed: 250kts - Cruise Altitude: 35000ft - Cruise Speed: 420kts - Descent Rate: 1500ft/min - Descent Speed: 250kts Options: - Use NATs: yes - Use PACOTS: yes - Use low airways: yes - Use high airways: yes

Route

MMMX MEX MMQT

ID Type Via Altitude Latitude Longitude Leg Dist Tot Dist Heading (true) Name
O MMMX APT - 0 ft / 0 m 19.43631˚ -99.07210˚ - 0 nm - Licenciado Benito Juarez Intl
MEX VOR - 0 ft / 0 m 19.43822˚ -99.06881˚ 0 nm 0 nm 58° / 58° MEXICO VOR-DME
O MMQT APT - 0 ft / 0 m 20.61729˚ -100.18566˚ 94 nm 95 nm 319° / 318° QUERETARO INTERCONTINENTAL

Altitude Profile

Advertisement - Login to hide

MMMX

Details ICAO MMMX (MEX)
Name Licenciado Benito Juarez Intl
Region Mexico
Timezone America/Mexico_City (UTC-6.0)
Stats Elevation 7,316 ft / 2,230 m (AMSL)
Location 19.436308° -99.072104°
Runways 2
Magnetic Variation 4.649° E

METAR

MMMX 112245Z 09007KT 8SM FEW200 20/M14 A3030 NOSIG RMK 8/002 HZY

Decode

TAF

TAF MMMX 111131Z 1112/1218 06005KT P6SM SCT250 TX19/1121Z TNM01/1112Z FM111800 08010KT P6SM SCT250 FM120300 02005KT P6SM SCT250 FM121700 06010KT P6SM SCT250

Decode

Departure Runways

ID Width Length Bearing (true) Bearing (mag) Surface Threshold Offset Overrun Length
05L 148 ft / 45 m 12,951 ft / 3,948 m 59.25° 54.60° Asphalt 1,033 ft / 315 m 0 ft / 0 m
05R 148 ft / 45 m 12,800 ft / 3,902 m 59.26° 54.61° Asphalt 1,493 ft / 455 m 0 ft / 0 m
23L 148 ft / 45 m 12,800 ft / 3,902 m 239.28° 234.63° Asphalt 0 ft / 0 m 200 ft / 61 m
23R 148 ft / 45 m 12,951 ft / 3,948 m 239.27° 234.62° Asphalt 1,640 ft / 500 m 0 ft / 0 m

MMQT

Details ICAO MMQT (QRO)
Name QUERETARO INTERCONTINENTAL
Region Mexico
Timezone America/Mexico_City (UTC-6.0)
Stats Elevation 6,296 ft / 1,919 m (AMSL)
Location 20.617289° -100.185657°
Runways 1
Magnetic Variation 5.077° E

METAR

MMQT 112249Z 04008KT 14SM BKN250 19/M10 A3033 RMK 8/008

Decode

TAF

Not found

Destination Runways

ID Width Length Bearing (true) Bearing (mag) Surface Threshold Offset Overrun Length
09 148 ft / 45 m 11,442 ft / 3,488 m 100.86° 95.78° Concrete 0 ft / 0 m 1,135 ft / 346 m
27 148 ft / 45 m 11,442 ft / 3,488 m 280.87° 275.79° Concrete 0 ft / 0 m 1,135 ft / 346 m

Popular Alternatives